Weather at Mineral Park Airstrip [CLOSED]

Public forecast

Using degrees Fahrenheit for public forecast. Weather courtesy of forecast.io.

Closest aviation weather report (METAR) to Mineral Park Airstrip

Closest report is Kingman Airport, 12.9 nm (23.9 km) ESE. Retrieved 2021/07/24 23:51 UTC (10 minutes ago):

KIGM 242351Z AUTO 24012KT 10SM CLR 30/16 A3005 RMK AO2 SLP104 T03000156 10311 20256 56015

Closest aviation forecast (TAF) to Mineral Park Airstrip

Closest forecast is Laughlin Bullhead International Airport, 21.6 nm (40.1 km) WSW. Retrieved 2021-07-25 00:22 UTC (0 seconds ago):

TAF KIFP 242320Z 2500/2524 19011KT P6SM SCT150 BKN250 FM250300 05015KT P6SM VCTS SCT120CB BKN250 TEMPO 2503/2505 04020G30KT -TSRA FM250700 15008KT P6SM BKN150 FM251600 18011KT P6SM BKN150